Time;durP1;ratioP1;P1;durP2;ratioP2;P2;SDS_P1;SDS_P2;PMS_P1;PMS_P2;Temp;Humidity;BMP_temperature;BMP_pressure;BME280_temperature;BME280_humidity;BME280_pressure;Samples;Min_cycle;Max_cycle;Signal;HPM_P1;HPM_P2
2022/08/05 00:01:53;;;;;;;6.47;2.22;;;21.10;99.90;;;;;;4183450;28;20221;-87
2022/08/05 00:03:54;;;;;;;5.10;1.85;;;20.80;99.90;;;;;;4183798;28;20171;-87
2022/08/05 00:05:56;;;;;;;4.40;1.60;;;20.80;99.90;;;;;;4201341;28;20175;-87
2022/08/05 00:07:56;;;;;;;8.75;2.20;;;20.90;99.90;;;;;;4200479;28;20262;-86
2022/08/05 00:09:58;;;;;;;6.32;2.03;;;20.90;99.90;;;;;;4199956;28;20259;-88
2022/08/05 00:11:59;;;;;;;6.30;2.03;;;21.10;99.90;;;;;;4202511;28;20559;-87
2022/08/05 00:14:00;;;;;;;7.03;1.90;;;21.10;99.90;;;;;;4183587;28;20187;-87
2022/08/05 00:16:02;;;;;;;6.80;1.83;;;21.20;99.90;;;;;;4185312;28;20183;-87
2022/08/05 00:18:03;;;;;;;5.45;1.90;;;21.30;99.90;;;;;;4199471;28;20175;-87
2022/08/05 00:20:06;;;;;;;5.97;1.85;;;21.40;99.90;;;;;;4183637;28;20189;-87
2022/08/05 00:22:07;;;;;;;7.65;1.85;;;21.40;99.90;;;;;;4200361;28;20221;-87
2022/08/05 00:24:08;;;;;;;8.02;1.40;;;21.50;99.90;;;;;;4200030;28;20170;-87
2022/08/05 00:26:12;;;;;;;5.18;1.65;;;21.40;99.90;;;;;;4201388;28;20174;-86
2022/08/05 00:28:14;;;;;;;4.35;1.50;;;21.50;99.90;;;;;;4183513;28;20179;-87
2022/08/05 00:30:15;;;;;;;4.22;1.65;;;21.60;99.90;;;;;;4202057;28;20611;-87
2022/08/05 00:32:16;;;;;;;6.60;1.77;;;21.60;99.90;;;;;;4187197;28;20242;-87
2022/08/05 00:34:16;;;;;;;5.20;1.77;;;21.70;99.90;;;;;;4220324;28;20654;-87
2022/08/05 00:36:17;;;;;;;3.53;1.80;;;21.70;99.90;;;;;;4187257;28;20175;-87
2022/08/05 00:38:18;;;;;;;5.90;1.85;;;21.70;99.90;;;;;;4203856;28;20176;-87
2022/08/05 00:40:21;;;;;;;6.15;1.88;;;21.60;99.90;;;;;;4186433;28;20632;-86
2022/08/05 00:42:30;;;;;;;7.88;1.98;;;21.50;99.90;;;;;;4203489;28;20198;-87
2022/08/05 00:44:31;;;;;;;8.02;2.38;;;21.50;99.90;;;;;;4203941;28;20162;-87
2022/08/05 00:46:32;;;;;;;4.68;1.73;;;21.70;99.90;;;;;;4186608;28;20167;-87
2022/08/05 00:48:32;;;;;;;6.65;2.10;;;21.60;99.90;;;;;;4184072;28;20258;-86
2022/08/05 00:50:33;;;;;;;13.65;2.50;;;22.10;99.90;;;;;;4183505;28;20221;-86
2022/08/05 00:52:34;;;;;;;6.43;2.17;;;22.60;99.90;;;;;;4183866;28;20211;-87
2022/08/05 00:54:35;;;;;;;10.18;2.88;;;22.70;99.90;;;;;;4200487;28;20171;-87
2022/08/05 00:56:35;;;;;;;8.10;2.92;;;22.50;99.90;;;;;;4201296;28;20178;-86
2022/08/05 00:58:36;;;;;;;10.13;3.28;;;22.20;99.90;;;;;;4201382;28;20175;-95
2022/08/05 01:00:38;;;;;;;6.82;3.25;;;21.80;99.90;;;;;;4185716;28;20167;-88
2022/08/05 01:02:39;;;;;;;7.95;2.70;;;21.40;99.90;;;;;;4185922;28;20203;-89
2022/08/05 01:04:39;;;;;;;7.95;2.75;;;20.90;99.90;;;;;;4200813;28;20236;-89
2022/08/05 01:06:40;;;;;;;8.52;2.95;;;20.70;99.90;;;;;;4217144;28;20204;-91
2022/08/05 01:08:41;;;;;;;4.70;2.70;;;20.60;99.90;;;;;;4200305;28;20171;-86
2022/08/05 01:10:53;;;;;;;10.70;3.13;;;20.50;99.90;;;;;;4183874;28;20164;-87
2022/08/05 01:13:02;;;;;;;11.75;3.28;;;20.40;99.90;;;;;;4183442;28;20211;-87
2022/08/05 01:15:09;;;;;;;14.55;3.72;;;20.30;99.90;;;;;;4200123;28;20589;-86
2022/08/05 01:17:20;;;;;;;9.80;3.35;;;20.30;99.90;;;;;;4199930;28;20198;-92
2022/08/05 01:19:20;;;;;;;9.82;3.35;;;20.30;99.90;;;;;;4200776;28;20174;-87
2022/08/05 01:21:27;;;;;;;8.82;3.78;;;20.30;99.90;;;;;;4199968;28;20223;-87
2022/08/05 01:24:01;;;;;;;12.50;3.72;;;20.40;99.90;;;;;;4199572;28;20198;-87
2022/08/05 01:26:18;;;;;;;8.50;3.45;;;20.50;99.90;;;;;;4183323;28;20178;-87
2022/08/05 01:28:41;;;;;;;9.48;3.28;;;20.60;99.90;;;;;;4199886;28;20171;-87
2022/08/05 01:31:06;;;;;;;12.02;3.15;;;20.80;99.90;;;;;;4199823;28;20246;-87
2022/08/05 01:33:09;;;;;;;11.85;3.88;;;21.00;99.90;;;;;;4199869;28;20211;-88
2022/08/05 01:35:15;;;;;;;10.10;3.72;;;21.00;99.90;;;;;;4199822;28;20579;-85
2022/08/05 01:37:21;;;;;;;12.63;3.42;;;20.90;99.90;;;;;;4183235;28;20180;-86
2022/08/05 01:39:23;;;;;;;8.23;3.55;;;20.80;99.90;;;;;;4199983;28;20276;-87
2022/08/05 01:41:26;;;;;;;13.73;3.33;;;20.70;99.90;;;;;;4199687;28;20264;-87
2022/08/05 01:43:27;;;;;;;18.23;3.72;;;20.90;99.90;;;;;;4183391;28;20297;-87
2022/08/05 01:45:31;;;;;;;7.47;3.40;;;21.10;99.90;;;;;;4199339;28;20209;-86
2022/08/05 01:47:35;;;;;;;11.38;3.72;;;21.20;99.90;;;;;;4199373;28;20175;-87
2022/08/05 01:49:38;;;;;;;9.75;3.55;;;21.20;99.90;;;;;;4182969;28;20178;-86
2022/08/05 01:51:41;;;;;;;16.15;3.97;;;21.30;99.90;;;;;;4182819;28;20195;-88
2022/08/05 01:53:45;;;;;;;7.90;3.10;;;21.50;99.90;;;;;;4199411;28;20578;-87
2022/08/05 01:55:47;;;;;;;7.05;3.08;;;21.50;99.90;;;;;;4182915;28;20254;-87
2022/08/05 01:57:49;;;;;;;7.40;3.35;;;21.20;99.90;;;;;;4199372;28;20179;-87
2022/08/05 01:59:53;;;;;;;10.48;2.85;;;20.90;99.90;;;;;;4199401;28;20182;-87
2022/08/05 02:01:57;;;;;;;13.10;3.40;;;20.70;99.90;;;;;;4182634;28;20262;-88
2022/08/05 02:03:59;;;;;;;10.48;2.80;;;20.50;99.90;;;;;;4182689;28;20544;-87
2022/08/05 02:06:06;;;;;;;8.07;2.97;;;20.50;99.90;;;;;;4182560;28;20236;-88
2022/08/05 02:08:07;;;;;;;7.80;2.83;;;20.60;99.90;;;;;;4182614;28;20178;-87
2022/08/05 02:10:09;;;;;;;9.75;3.10;;;20.70;99.90;;;;;;4200325;28;20221;-87
2022/08/05 02:12:10;;;;;;;8.63;3.00;;;20.70;99.90;;;;;;4199991;28;20300;-87
2022/08/05 02:14:14;;;;;;;7.18;2.72;;;20.80;99.90;;;;;;4182353;28;20188;-89
2022/08/05 02:16:29;;;;;;;6.93;2.90;;;20.90;99.90;;;;;;4198896;28;20308;-87
2022/08/05 02:18:34;;;;;;;6.40;2.70;;;21.00;99.90;;;;;;4198874;28;20178;-88
2022/08/05 02:21:01;;;;;;;7.00;3.10;;;21.00;99.90;;;;;;4182043;28;20262;-87
2022/08/05 02:23:07;;;;;;;11.57;3.20;;;21.00;99.90;;;;;;4198689;28;20844;-87
2022/08/05 02:25:16;;;;;;;8.48;3.28;;;21.00;99.90;;;;;;4198678;28;20664;-88
2022/08/05 02:27:18;;;;;;;12.40;3.40;;;20.90;99.90;;;;;;4198737;28;20175;-87
2022/08/05 02:29:22;;;;;;;8.20;3.25;;;20.90;99.90;;;;;;4198955;28;20582;-88
2022/08/05 02:31:26;;;;;;;11.45;2.88;;;20.70;99.90;;;;;;4198681;28;20171;-87
2022/08/05 02:33:29;;;;;;;8.30;3.05;;;20.80;99.90;;;;;;4198586;28;20203;-87
2022/08/05 02:35:32;;;;;;;7.07;2.50;;;20.80;99.90;;;;;;4198834;28;20202;-87
2022/08/05 02:37:35;;;;;;;12.90;3.08;;;20.90;99.90;;;;;;4181990;28;20709;-87
2022/08/05 02:39:38;;;;;;;9.45;2.92;;;20.90;99.90;;;;;;4198888;28;20174;-87
2022/08/05 02:41:41;;;;;;;13.15;2.75;;;20.80;99.90;;;;;;4182048;28;20179;-87
2022/08/05 02:43:45;;;;;;;8.02;2.58;;;20.80;99.90;;;;;;4198488;28;20218;-86
2022/08/05 02:45:48;;;;;;;7.90;2.40;;;20.50;99.90;;;;;;4181807;28;20237;-86
2022/08/05 02:47:51;;;;;;;9.05;2.38;;;20.60;99.90;;;;;;4181711;28;20690;-88
2022/08/05 02:49:52;;;;;;;11.30;2.60;;;20.80;99.90;;;;;;4181825;28;20180;-86
2022/08/05 02:51:54;;;;;;;7.38;2.47;;;21.10;99.90;;;;;;4198122;28;20214;-87
2022/08/05 02:53:56;;;;;;;10.00;2.78;;;21.10;99.90;;;;;;4198099;28;20177;-89
2022/08/05 02:55:58;;;;;;;10.85;2.72;;;21.00;99.90;;;;;;4198189;28;20177;-86
2022/08/05 02:57:59;;;;;;;7.78;2.67;;;21.30;99.90;;;;;;4181709;28;20182;-92
2022/08/05 03:00:00;;;;;;;7.47;2.72;;;21.30;99.90;;;;;;4181869;28;20179;-86
2022/08/05 03:02:02;;;;;;;6.80;2.40;;;21.00;99.90;;;;;;4181903;28;20179;-93
2022/08/05 03:04:06;;;;;;;8.90;2.88;;;21.00;99.90;;;;;;4198355;28;20166;-88
2022/08/05 03:06:11;;;;;;;6.30;2.30;;;21.00;99.90;;;;;;4181610;28;20189;-88
2022/08/05 03:08:13;;;;;;;5.07;2.17;;;20.70;99.90;;;;;;4181843;28;20258;-87
2022/08/05 03:10:15;;;;;;;7.07;2.20;;;20.60;99.90;;;;;;4198288;28;20167;-87
2022/08/05 03:12:33;;;;;;;6.38;2.13;;;20.50;99.90;;;;;;4197748;28;20302;-86
2022/08/05 03:14:34;;;;;;;8.73;2.28;;;20.50;99.90;;;;;;4181381;28;20593;-90
2022/08/05 03:16:35;;;;;;;6.90;2.22;;;20.40;99.90;;;;;;4198121;28;20187;-88
2022/08/05 03:18:36;;;;;;;8.48;2.15;;;20.00;99.90;;;;;;4181650;28;20180;-86
2022/08/05 03:20:36;;;;;;;7.53;2.55;;;20.40;99.90;;;;;;4198952;28;20416;-93
2022/08/05 03:22:37;;;;;;;6.75;2.13;;;20.50;99.90;;;;;;4181634;28;20278;-87
2022/08/05 03:24:38;;;;;;;8.82;2.35;;;20.70;99.90;;;;;;4181683;28;20233;-88
2022/08/05 03:26:39;;;;;;;5.35;2.03;;;20.50;99.90;;;;;;4181304;28;20214;-91
2022/08/05 03:28:39;;;;;;;7.60;2.47;;;20.50;99.90;;;;;;4181258;28;20172;-86
2022/08/05 03:30:41;;;;;;;6.53;2.60;;;20.60;99.90;;;;;;4197821;28;20171;-89
2022/08/05 03:32:42;;;;;;;10.80;3.10;;;20.70;99.90;;;;;;4181476;28;20317;-87
2022/08/05 03:34:44;;;;;;;10.10;2.90;;;21.00;99.90;;;;;;4181408;28;20229;-88
2022/08/05 03:36:44;;;;;;;12.68;2.83;;;20.70;99.90;;;;;;4197720;28;20209;-86
2022/08/05 03:38:45;;;;;;;7.75;2.58;;;20.50;99.90;;;;;;4181008;28;20168;-86
2022/08/05 03:40:46;;;;;;;11.73;3.08;;;20.30;99.90;;;;;;4181267;28;20591;-87
2022/08/05 03:42:46;;;;;;;7.78;2.47;;;20.30;99.90;;;;;;4180942;28;20213;-87
2022/08/05 03:44:47;;;;;;;8.27;2.65;;;20.40;99.90;;;;;;4181191;28;20179;-89
2022/08/05 03:46:48;;;;;;;12.85;2.65;;;20.60;99.90;;;;;;4197726;28;20282;-86
2022/08/05 03:48:48;;;;;;;7.72;2.70;;;20.30;99.90;;;;;;4197886;28;20225;-88
2022/08/05 03:50:59;;;;;;;9.75;3.05;;;20.30;99.90;;;;;;4197455;28;20650;-87
2022/08/05 03:53:05;;;;;;;12.32;3.40;;;20.50;99.90;;;;;;4181110;28;20211;-87
2022/08/05 03:55:14;;;;;;;15.13;3.17;;;20.30;99.90;;;;;;4197532;28;20225;-87
2022/08/05 03:57:19;;;;;;;10.43;2.97;;;20.20;99.90;;;;;;4197470;28;20209;-87
2022/08/05 03:59:46;;;;;;;11.43;3.40;;;20.40;99.90;;;;;;4197523;28;20171;-87
2022/08/05 04:01:49;;;;;;;10.98;3.13;;;20.40;99.90;;;;;;4197279;28;20262;-87
2022/08/05 04:03:51;;;;;;;9.60;3.53;;;20.50;99.90;;;;;;4181031;28;20635;-87
2022/08/05 04:05:52;;;;;;;13.48;3.83;;;20.30;99.90;;;;;;4180972;28;20266;-89
2022/08/05 04:07:54;;;;;;;13.88;4.07;;;20.20;99.90;;;;;;4181111;28;20171;-91
2022/08/05 04:09:55;;;;;;;13.57;4.00;;;20.40;99.90;;;;;;4181030;28;20640;-86
2022/08/05 04:11:56;;;;;;;13.45;3.67;;;20.30;99.90;;;;;;4180420;28;20672;-92
2022/08/05 04:13:57;;;;;;;11.95;3.28;;;20.30;99.90;;;;;;4197496;28;20163;-90
2022/08/05 04:15:58;;;;;;;18.33;4.22;;;20.40;99.90;;;;;;4180747;28;20636;-86
2022/08/05 04:18:02;;;;;;;9.38;3.83;;;20.10;99.90;;;;;;4197521;28;20228;-87
2022/08/05 04:20:03;;;;;;;13.80;3.85;;;19.90;99.90;;;;;;4214083;28;20288;-86
2022/08/05 04:22:04;;;;;;;12.30;3.83;;;19.80;99.90;;;;;;4213932;28;20186;-86
2022/08/05 04:24:06;;;;;;;13.60;3.35;;;19.80;99.90;;;;;;4197127;28;20175;-88
2022/08/05 04:26:06;;;;;;;15.65;4.50;;;20.00;99.90;;;;;;4180604;28;20536;-87
2022/08/05 04:28:07;;;;;;;11.80;3.72;;;19.90;99.90;;;;;;4180582;28;20222;-88
2022/08/05 04:30:09;;;;;;;9.52;4.00;;;19.90;99.90;;;;;;4180653;28;20651;-87
2022/08/05 04:32:10;;;;;;;12.88;3.45;;;19.80;99.90;;;;;;4197160;28;20634;-87
2022/08/05 04:34:11;;;;;;;8.00;3.22;;;20.00;99.90;;;;;;4180697;28;20183;-88
2022/08/05 04:36:12;;;;;;;13.25;3.67;;;20.60;99.90;;;;;;4197256;28;20207;-86
2022/08/05 04:38:13;;;;;;;10.00;3.53;;;20.60;99.90;;;;;;4180447;28;20638;-87
2022/08/05 04:40:15;;;;;;;13.43;3.42;;;20.50;99.90;;;;;;4180672;28;20210;-86
2022/08/05 04:42:16;;;;;;;14.15;3.90;;;20.30;99.90;;;;;;4180412;28;20198;-86
2022/08/05 04:44:17;;;;;;;11.90;3.70;;;20.60;99.90;;;;;;4197101;28;20175;-86
2022/08/05 04:46:17;;;;;;;9.50;3.72;;;20.40;99.90;;;;;;4197340;28;20202;-86
2022/08/05 04:48:18;;;;;;;9.23;3.25;;;20.40;99.90;;;;;;4180709;28;20179;-87
2022/08/05 04:50:19;;;;;;;11.82;3.90;;;20.40;99.90;;;;;;4180479;28;20164;-86
2022/08/05 04:52:19;;;;;;;6.55;3.63;;;20.20;99.90;;;;;;4180392;28;20222;-87
2022/08/05 04:54:21;;;;;;;12.80;3.50;;;20.10;99.90;;;;;;4197043;28;20175;-86
2022/08/05 04:56:22;;;;;;;13.00;4.05;;;20.10;99.90;;;;;;4196992;28;20171;-86
2022/08/05 04:58:22;;;;;;;9.50;3.80;;;20.10;99.90;;;;;;4197149;28;20543;-87
2022/08/05 05:00:23;;;;;;;14.18;3.50;;;20.40;99.90;;;;;;4196899;28;20255;-86
2022/08/05 05:02:24;;;;;;;8.38;3.33;;;20.50;99.90;;;;;;4180416;28;20274;-90
2022/08/05 05:04:25;;;;;;;14.50;4.18;;;20.40;99.90;;;;;;4213814;28;20244;-92
2022/08/05 05:06:26;;;;;;;10.23;3.30;;;20.00;99.90;;;;;;4197176;28;20175;-86
2022/08/05 05:08:27;;;;;;;14.63;4.35;;;19.60;99.90;;;;;;4197021;28;20217;-88
2022/08/05 05:10:29;;;;;;;10.73;4.20;;;19.50;99.90;;;;;;4180301;28;20159;-86
2022/08/05 05:12:30;;;;;;;8.88;4.10;;;19.70;99.90;;;;;;4180116;28;20299;-86
2022/08/05 05:14:30;;;;;;;11.70;3.72;;;19.90;99.90;;;;;;4213614;28;20299;-86
2022/08/05 05:16:31;;;;;;;12.98;4.68;;;19.90;99.90;;;;;;4181902;28;20192;-87
2022/08/05 05:18:32;;;;;;;14.45;4.35;;;20.10;99.90;;;;;;4199587;28;20232;-87
2022/08/05 05:20:33;;;;;;;16.85;4.22;;;20.20;99.90;;;;;;4183432;28;20698;-87
2022/08/05 05:22:35;;;;;;;13.65;4.05;;;20.30;99.90;;;;;;4183461;28;20203;-86
2022/08/05 05:24:35;;;;;;;11.63;4.72;;;20.30;99.90;;;;;;4199784;28;20660;-86
2022/08/05 05:26:36;;;;;;;11.73;4.47;;;20.50;99.90;;;;;;4183339;28;20229;-92
2022/08/05 05:28:37;;;;;;;12.23;4.68;;;20.40;99.90;;;;;;4199849;28;20262;-86
2022/08/05 05:30:38;;;;;;;11.25;4.63;;;20.40;99.90;;;;;;4199910;28;20720;-90
2022/08/05 05:32:39;;;;;;;12.35;4.18;;;20.50;99.90;;;;;;4183230;28;20229;-87
2022/08/05 05:34:39;;;;;;;13.43;5.00;;;20.60;99.90;;;;;;4217777;28;20172;-87
2022/08/05 05:36:40;;;;;;;14.30;4.85;;;20.70;99.90;;;;;;4200683;28;20171;-86
2022/08/05 05:38:41;;;;;;;12.57;4.85;;;20.40;99.90;;;;;;4201056;28;20174;-86
2022/08/05 05:40:42;;;;;;;11.90;5.00;;;20.50;99.90;;;;;;4209451;28;20666;-86
2022/08/05 05:42:44;;;;;;;16.80;5.25;;;20.40;99.90;;;;;;4187335;28;20192;-86
2022/08/05 05:44:45;;;;;;;13.40;4.38;;;20.20;99.90;;;;;;4208484;28;20178;-85
2022/08/05 05:46:46;;;;;;;15.57;5.13;;;20.40;99.90;;;;;;4201528;28;20174;-86
2022/08/05 05:48:47;;;;;;;12.55;4.53;;;20.50;99.90;;;;;;4218712;28;20181;-86
2022/08/05 05:50:50;;;;;;;16.05;4.90;;;20.30;99.90;;;;;;4169655;28;20179;-86
2022/08/05 05:52:51;;;;;;;11.95;5.15;;;20.40;99.90;;;;;;4203200;28;20214;-86
2022/08/05 05:54:58;;;;;;;10.48;4.68;;;20.50;99.90;;;;;;4185101;28;20564;-85
2022/08/05 05:56:58;;;;;;;11.52;4.57;;;20.40;99.90;;;;;;4202808;28;20249;-86
2022/08/05 05:59:01;;;;;;;11.93;4.88;;;20.30;99.90;;;;;;4201617;28;20213;-86
2022/08/05 06:01:02;;;;;;;13.27;5.20;;;20.30;99.90;;;;;;4185847;28;20210;-86
2022/08/05 06:03:02;;;;;;;11.75;4.93;;;20.50;99.90;;;;;;4200629;28;20198;-86
2022/08/05 06:05:06;;;;;;;8.65;4.30;;;20.60;99.90;;;;;;4203067;28;20175;-86
2022/08/05 06:07:06;;;;;;;14.02;5.22;;;20.40;99.90;;;;;;4185898;28;20175;-86
2022/08/05 06:09:09;;;;;;;16.77;4.70;;;20.40;99.90;;;;;;4202673;28;20400;-86
2022/08/05 06:11:09;;;;;;;10.75;4.80;;;20.50;99.90;;;;;;4185241;28;20267;-88
2022/08/05 06:13:10;;;;;;;15.55;4.70;;;20.50;99.90;;;;;;4184898;28;20211;-86
2022/08/05 06:15:11;;;;;;;12.90;5.18;;;20.60;99.90;;;;;;4203121;28;20193;-86
2022/08/05 06:17:13;;;;;;;14.70;5.40;;;20.60;99.90;;;;;;4202961;28;20183;-86
2022/08/05 06:19:13;;;;;;;7.50;4.63;;;20.70;99.90;;;;;;4186224;28;20675;-87
2022/08/05 06:21:16;;;;;;;12.23;5.60;;;20.70;99.90;;;;;;4186020;28;20179;-86
2022/08/05 06:23:17;;;;;;;14.68;5.63;;;20.60;99.90;;;;;;4202633;28;20214;-86
2022/08/05 06:25:18;;;;;;;10.85;5.05;;;20.80;99.90;;;;;;4202180;28;20179;-86
2022/08/05 06:27:19;;;;;;;13.07;5.68;;;20.80;99.90;;;;;;4186465;28;20198;-86
2022/08/05 06:29:20;;;;;;;11.32;5.47;;;20.80;99.90;;;;;;4202567;28;20171;-86
2022/08/05 06:31:20;;;;;;;10.60;5.60;;;20.70;99.90;;;;;;4203216;28;20178;-86
2022/08/05 06:33:22;;;;;;;17.38;5.55;;;20.60;99.90;;;;;;4202567;28;20206;-85
2022/08/05 06:35:38;;;;;;;20.02;5.82;;;20.60;99.90;;;;;;4186336;28;20172;-85
2022/08/05 06:37:38;;;;;;;10.43;5.78;;;20.80;99.90;;;;;;4186072;28;20275;-86
2022/08/05 06:39:39;;;;;;;12.25;5.47;;;20.90;99.90;;;;;;4219320;28;20170;-87
2022/08/05 06:41:43;;;;;;;15.38;5.85;;;21.00;99.90;;;;;;4203047;28;20170;-86
2022/08/05 06:43:49;;;;;;;11.48;5.70;;;20.90;99.90;;;;;;4185827;28;20228;-86
2022/08/05 06:45:49;;;;;;;18.83;6.18;;;21.00;99.90;;;;;;4201652;28;20558;-87
2022/08/05 06:47:50;;;;;;;13.95;5.82;;;21.20;99.90;;;;;;4185061;28;20201;-86
2022/08/05 06:49:50;;;;;;;15.90;6.70;;;21.20;99.90;;;;;;4218708;28;20163;-87
2022/08/05 06:51:52;;;;;;;19.50;6.38;;;21.20;99.90;;;;;;4218669;28;20300;-86
2022/08/05 06:53:53;;;;;;;14.95;6.25;;;21.20;99.90;;;;;;4186891;28;20672;-87
2022/08/05 06:56:04;;;;;;;12.05;5.65;;;21.30;99.90;;;;;;4185646;28;20178;-86
2022/08/05 06:58:05;;;;;;;13.90;5.47;;;21.30;99.90;;;;;;4185221;28;20172;-87
2022/08/05 07:00:06;;;;;;;13.30;5.95;;;21.20;99.90;;;;;;4201904;28;20185;-87
2022/08/05 07:02:09;;;;;;;11.02;5.70;;;21.40;99.90;;;;;;4203030;28;20185;-87
2022/08/05 07:04:10;;;;;;;14.52;5.50;;;21.50;99.90;;;;;;4202498;28;20532;-86
2022/08/05 07:06:10;;;;;;;16.25;6.47;;;21.40;99.90;;;;;;4183321;28;20194;-86
2022/08/05 07:08:11;;;;;;;15.63;5.95;;;21.20;99.90;;;;;;4185265;28;20187;-87
2022/08/05 07:10:12;;;;;;;15.20;6.10;;;21.00;99.90;;;;;;4183899;28;20171;-87
2022/08/05 07:16:48;;;;;;;14.73;6.15;;;21.10;99.90;;;;;;4183568;28;20219;-87
2022/08/05 07:16:58;;;;;;;17.85;6.40;;;21.20;99.90;;;;;;4199677;28;20206;-87
2022/08/05 07:19:02;;;;;;;16.00;5.55;;;21.40;99.90;;;;;;4201311;28;20171;-86
2022/08/05 07:21:05;;;;;;;16.58;5.95;;;21.90;99.90;;;;;;4185169;28;20678;-86
2022/08/05 07:23:05;;;;;;;12.98;5.32;;;22.60;99.90;;;;;;4199685;28;20187;-87
2022/08/05 07:25:07;;;;;;;14.65;5.18;;;23.50;99.90;;;;;;4202387;28;20221;-87
2022/08/05 07:27:08;;;;;;;11.10;4.68;;;24.10;99.90;;;;;;4203428;28;20181;-88
2022/08/05 07:29:12;;;;;;;10.20;4.20;;;24.60;99.90;;;;;;4216936;28;20177;-86
2022/08/05 07:31:13;;;;;;;9.07;3.95;;;24.90;99.90;;;;;;4198532;28;20178;-85
2022/08/05 07:33:13;;;;;;;15.00;4.05;;;25.20;99.90;;;;;;4184140;28;20246;-85
2022/08/05 07:35:14;;;;;;;9.18;4.45;;;25.40;99.90;;;;;;4200592;28;20245;-87
2022/08/05 07:37:15;;;;;;;13.30;4.43;;;25.60;99.90;;;;;;4199858;28;20178;-86
2022/08/05 07:39:15;;;;;;;12.18;4.53;;;25.90;99.90;;;;;;4201589;28;20218;-87
2022/08/05 07:41:18;;;;;;;8.60;4.20;;;26.10;99.90;;;;;;4200164;28;20204;-87
2022/08/05 07:43:19;;;;;;;11.75;3.95;;;26.20;99.90;;;;;;4200795;28;20230;-87
2022/08/05 07:45:19;;;;;;;14.82;4.25;;;26.30;99.90;;;;;;4183005;28;20183;-86
2022/08/05 07:47:21;;;;;;;12.90;3.67;;;26.40;99.90;;;;;;4200222;28;20233;-87
2022/08/05 07:49:21;;;;;;;11.27;3.60;;;26.20;99.90;;;;;;4199941;28;20209;-87
2022/08/05 07:51:22;;;;;;;7.88;2.90;;;26.70;99.90;;;;;;4183515;28;20258;-87
2022/08/05 07:53:30;;;;;;;9.60;3.70;;;26.90;99.90;;;;;;4204400;28;20735;-86
2022/08/05 07:55:31;;;;;;;8.73;2.90;;;26.70;99.90;;;;;;4185694;28;20148;-95
2022/08/05 07:57:31;;;;;;;7.13;3.00;;;26.60;99.90;;;;;;4202257;28;20170;-95
2022/08/05 07:59:32;;;;;;;9.00;3.10;;;26.90;99.90;;;;;;4203938;28;20569;-88
2022/08/05 08:01:32;;;;;;;6.82;3.05;;;27.40;99.90;;;;;;4201472;28;20170;-87
2022/08/05 08:03:33;;;;;;;10.20;3.33;;;27.40;99.90;;;;;;4184281;28;20191;-87
2022/08/05 08:05:34;;;;;;;9.63;3.65;;;27.00;99.90;;;;;;4187989;28;20162;-87
2022/08/05 08:07:34;;;;;;;14.32;3.13;;;26.70;99.90;;;;;;4186929;28;20210;-87
2022/08/05 08:09:55;;;;;;;11.05;3.90;;;25.70;99.90;;;;;;4201831;28;20171;-85
2022/08/05 08:11:56;;;;;;;8.95;3.30;;;25.50;99.90;;;;;;4218737;28;20213;-86
2022/08/05 08:13:56;;;;;;;11.13;3.15;;;25.30;99.90;;;;;;4191344;28;20183;-85
2022/08/05 08:15:57;;;;;;;9.25;2.85;;;25.40;99.90;;;;;;4185949;28;20575;-87
2022/08/05 08:17:58;;;;;;;5.15;2.53;;;26.20;99.90;;;;;;4187973;28;20188;-92
2022/08/05 08:19:59;;;;;;;10.07;3.20;;;26.90;99.90;;;;;;4188662;28;20262;-87
2022/08/05 08:22:00;;;;;;;8.73;3.25;;;27.50;99.90;;;;;;4204177;28;20624;-87
2022/08/05 08:24:00;;;;;;;12.13;3.35;;;27.80;99.90;;;;;;4200616;28;20174;-92
2022/08/05 08:26:01;;;;;;;13.07;3.20;;;27.50;99.90;;;;;;4186866;28;20175;-87
2022/08/05 08:28:02;;;;;;;9.85;3.17;;;27.00;99.90;;;;;;4201066;28;20173;-88
2022/08/05 08:30:03;;;;;;;11.18;3.53;;;26.10;99.90;;;;;;4184079;28;20194;-88
2022/08/05 08:32:04;;;;;;;8.45;3.38;;;25.40;99.90;;;;;;4183150;28;20219;-87
2022/08/05 08:34:06;;;;;;;8.85;3.40;;;25.10;99.90;;;;;;4197363;28;20650;-87
2022/08/05 08:36:07;;;;;;;9.18;3.25;;;24.80;99.90;;;;;;4183478;28;20268;-88
2022/08/05 08:38:08;;;;;;;7.93;2.65;;;24.20;99.90;;;;;;4182689;28;20274;-87
2022/08/05 08:40:10;;;;;;;5.25;2.80;;;24.00;99.90;;;;;;4182850;28;20179;-88
2022/08/05 08:42:11;;;;;;;6.32;2.55;;;23.70;99.90;;;;;;4181803;28;20274;-88
2022/08/05 08:44:14;;;;;;;9.88;2.28;;;23.60;99.90;;;;;;4184593;28;20183;-87
2022/08/05 08:46:16;;;;;;;7.57;1.50;;;24.10;99.90;;;;;;4201950;28;20611;-87
2022/08/05 08:48:19;;;;;;;5.10;1.60;;;24.60;99.90;;;;;;4188274;28;20206;-93
2022/08/05 08:50:22;;;;;;;5.35;1.42;;;24.60;99.90;;;;;;4191782;28;20176;-91
2022/08/05 08:52:28;;;;;;;7.07;1.75;;;24.70;99.90;;;;;;4213686;28;20198;-87
2022/08/05 08:54:30;;;;;;;8.90;1.58;;;24.50;99.90;;;;;;4210705;28;20280;-87
2022/08/05 08:56:38;;;;;;;2.88;1.30;;;24.30;99.90;;;;;;4206358;28;20179;-89
2022/08/05 08:58:41;;;;;;;4.88;1.40;;;24.20;99.90;;;;;;4206260;28;20174;-89
2022/08/05 09:01:04;;;;;;;5.45;1.52;;;25.40;99.90;;;;;;4215173;28;20158;-90
2022/08/05 09:03:10;;;;;;;5.95;1.77;;;26.30;99.90;;;;;;4217616;28;20222;-89
2022/08/05 09:05:14;;;;;;;5.47;1.52;;;26.60;99.90;;;;;;4184279;28;20176;-88
2022/08/05 09:07:51;;;;;;;3.75;1.08;;;26.70;99.90;;;;;;4217151;28;20199;-93
2022/08/05 09:10:32;;;;;;;4.22;1.20;;;27.10;99.90;;;;;;4232396;28;20192;-88
2022/08/05 09:12:37;;;;;;;5.57;1.10;;;26.80;99.90;;;;;;4215409;28;20210;-89
2022/08/05 09:15:02;;;;;;;5.55;1.38;;;27.00;99.90;;;;;;4183762;28;20195;-88
2022/08/05 09:17:15;;;;;;;2.70;1.02;;;27.50;99.90;;;;;;4199909;28;20210;-88
2022/08/05 09:19:17;;;;;;;6.18;1.10;;;27.70;99.90;;;;;;4217724;28;20198;-89
2022/08/05 09:21:21;;;;;;;4.65;0.93;;;26.80;99.90;;;;;;4235484;28;20173;-88
2022/08/05 09:23:28;;;;;;;4.00;1.00;;;26.60;99.90;;;;;;4218973;28;20242;-89
2022/08/05 09:26:02;;;;;;;3.65;0.77;;;26.70;99.90;;;;;;4182338;28;20241;-87
2022/08/05 09:28:58;;;;;;;3.28;0.82;;;27.30;99.90;;;;;;4237684;28;20223;-89
2022/08/05 09:32:18;;;;;;;4.68;1.00;;;28.60;99.90;;;;;;4221926;28;20186;-92
2022/08/05 09:35:22;;;;;;;3.58;0.73;;;29.10;99.90;;;;;;4236653;28;20213;-88
2022/08/05 09:38:16;;;;;;;7.43;1.40;;;28.00;99.90;;;;;;4218804;28;20162;-89
2022/08/05 09:44:28;;;;;;;3.88;0.70;;;26.80;99.90;;;;;;4220210;28;20193;-89
2022/08/05 09:46:42;;;;;;;2.60;0.70;;;27.10;99.90;;;;;;4220966;28;20167;-87
2022/08/05 09:48:48;;;;;;;4.00;0.98;;;26.90;99.90;;;;;;4200473;28;20178;-92
2022/08/05 09:50:55;;;;;;;3.40;0.65;;;26.40;99.90;;;;;;4219058;28;20194;-87
2022/08/05 09:52:57;;;;;;;2.35;0.60;;;26.00;99.90;;;;;;4202513;28;20211;-93
2022/08/05 09:55:21;;;;;;;2.13;0.70;;;25.70;99.90;;;;;;4219997;28;20221;-90
2022/08/05 09:58:37;;;;;;;3.58;0.70;;;25.60;99.90;;;;;;4529694;22;20225;-89
2022/08/05 10:00:40;;;;;;;4.40;0.90;;;26.20;99.90;;;;;;4358547;22;20219;-88
2022/08/05 10:06:22;;;;;;;5.95;1.00;;;27.90;99.90;;;;;;4215553;28;20193;-94
2022/08/05 10:08:55;;;;;;;7.53;1.33;;;27.60;99.90;;;;;;4220691;28;20183;-89
2022/08/05 10:11:18;;;;;;;3.40;1.05;;;27.40;99.90;;;;;;4221158;28;20150;-87
2022/08/05 10:17:38;;;;;;;3.90;1.00;;;26.40;99.90;;;;;;4220474;28;20184;-93
2022/08/05 10:19:40;;;;;;;3.13;0.90;;;26.30;99.90;;;;;;4216940;28;20179;-95
2022/08/05 10:21:56;;;;;;;3.10;0.68;;;26.30;99.90;;;;;;4217447;28;20163;-90
2022/08/05 10:23:58;;;;;;;4.93;0.85;;;27.10;99.90;;;;;;4211965;28;20289;-96
2022/08/05 10:30:12;;;;;;;2.70;1.10;;;27.20;99.90;;;;;;4136633;28;20212;-90
2022/08/05 10:32:18;;;;;;;4.20;0.80;;;28.00;99.90;;;;;;4136545;28;20226;-88
2022/08/05 10:34:22;;;;;;;3.08;0.73;;;27.50;99.90;;;;;;4201975;28;20236;-88
2022/08/05 10:39:28;;;;;;;1.80;0.65;;;26.10;99.90;;;;;;4234197;28;20189;-90
2022/08/05 10:42:08;;;;;;;2.55;0.65;;;26.20;99.90;;;;;;4216650;28;20237;-88
2022/08/05 10:44:35;;;;;;;4.00;0.90;;;25.80;99.90;;;;;;4218083;28;20169;-87
2022/08/05 10:47:28;;;;;;;3.45;0.95;;;25.70;99.90;;;;;;4218807;28;20163;-92
2022/08/05 10:53:02;;;;;;;2.28;0.50;;;25.20;99.90;;;;;;4353232;22;20181;-90
2022/08/05 10:56:40;;;;;;;5.82;1.00;;;25.30;99.90;;;;;;4253337;28;20169;-89
2022/08/05 11:15:04;;;;;;;2.30;0.70;;;24.50;99.90;;;;;;4198083;28;20241;-88
2022/08/05 11:21:35;;;;;;;4.68;0.90;;;24.20;99.90;;;;;;4196895;28;20243;-89
2022/08/05 11:24:11;;;;;;;2.25;0.68;;;24.90;99.90;;;;;;4209868;22;20229;-89
2022/08/05 11:26:47;;;;;;;5.85;0.60;;;25.10;99.90;;;;;;4217411;28;20170;-89
2022/08/05 11:28:51;;;;;;;8.20;0.70;;;25.60;99.90;;;;;;4215378;28;20193;-90
2022/08/05 11:30:54;;;;;;;3.70;0.65;;;26.00;99.90;;;;;;4174005;28;20279;-88
2022/08/05 11:33:37;;;;;;;4.68;0.55;;;25.90;99.90;;;;;;4189023;28;20207;-90
2022/08/05 11:36:00;;;;;;;5.88;0.88;;;25.40;99.90;;;;;;4187880;28;20195;-90
2022/08/05 11:38:01;;;;;;;2.72;0.40;;;24.90;99.90;;;;;;4203944;28;20190;-88